createdAt,value
2018-04-19T00:00:40.316Z,15.27
2018-04-19T00:03:14.954Z,14.60
2018-04-19T00:05:48.882Z,15.23
2018-04-19T00:08:23.235Z,14.93
2018-04-19T00:10:58.609Z,14.93
2018-04-19T00:13:33.023Z,15.23
2018-04-19T00:16:07.790Z,15.00
2018-04-19T00:18:42.160Z,15.20
2018-04-19T00:21:16.698Z,14.57
2018-04-19T00:23:51.306Z,15.57
2018-04-19T00:26:26.180Z,15.60
2018-04-19T00:29:00.204Z,15.53
2018-04-19T00:31:34.869Z,15.00
2018-04-19T00:34:08.767Z,15.20
2018-04-19T00:36:43.558Z,15.37
2018-04-19T00:39:18.121Z,15.50
2018-04-19T00:41:51.945Z,15.53
2018-04-19T00:44:25.830Z,15.00
2018-04-19T00:47:01.091Z,15.50
2018-04-19T00:49:35.990Z,15.83
2018-04-19T00:52:10.288Z,15.13
2018-04-19T00:54:45.474Z,16.13
2018-04-19T00:57:19.223Z,15.60
2018-04-19T00:59:53.763Z,14.90
2018-04-19T01:02:28.095Z,14.90
2018-04-19T01:05:02.232Z,15.90
2018-04-19T01:07:37.491Z,15.20
2018-04-19T01:10:12.493Z,17.53
2018-04-19T01:12:46.335Z,16.87
2018-04-19T01:15:20.976Z,16.33
2018-04-19T01:17:54.835Z,16.80
2018-04-19T01:20:28.719Z,17.80
2018-04-19T01:23:02.712Z,16.77
2018-04-19T01:25:36.382Z,17.30
2018-04-19T01:28:10.151Z,16.50
2018-04-19T01:30:45.208Z,16.17
2018-04-19T01:33:18.872Z,17.60
2018-04-19T01:36:05.372Z,16.63
2018-04-19T01:38:39.429Z,16.30
2018-04-19T01:41:13.466Z,16.07
2018-04-19T01:43:47.189Z,16.93
2018-04-19T01:46:21.548Z,16.30
2018-04-19T01:48:55.707Z,17.40
2018-04-19T01:51:29.551Z,16.43
2018-04-19T01:54:05.256Z,16.93
2018-04-19T01:56:40.279Z,17.37
2018-04-19T01:59:15.388Z,16.47
2018-04-19T02:01:49.100Z,17.50
2018-04-19T02:04:24.350Z,16.70
2018-04-19T02:06:58.188Z,16.80
2018-04-19T02:09:33.143Z,18.03
2018-04-19T02:12:07.667Z,17.00
2018-04-19T02:14:41.798Z,16.83
2018-04-19T02:17:15.611Z,16.03
2018-04-19T02:19:49.479Z,16.60
2018-04-19T02:22:23.210Z,15.30
2018-04-19T02:24:57.803Z,15.63
2018-04-19T02:27:31.731Z,15.83
2018-04-19T02:30:05.860Z,16.60
2018-04-19T02:32:39.715Z,15.33
2018-04-19T02:35:14.418Z,15.80
2018-04-19T02:37:48.044Z,16.67
2018-04-19T02:40:22.297Z,16.30
2018-04-19T02:42:56.985Z,16.33
2018-04-19T02:45:31.534Z,15.23
2018-04-19T02:48:07.074Z,15.90
2018-04-19T02:50:41.042Z,15.77
2018-04-19T02:53:15.879Z,16.03
2018-04-19T02:55:50.412Z,16.30
2018-04-19T02:58:23.947Z,16.37
2018-04-19T03:00:57.710Z,16.00
2018-04-19T03:03:32.489Z,15.87
2018-04-19T03:06:07.112Z,15.60
2018-04-19T03:08:41.095Z,14.30
2018-04-19T03:11:15.902Z,15.03
2018-04-19T03:13:50.365Z,14.73
2018-04-19T03:16:25.118Z,14.10
2018-04-19T03:18:59.067Z,14.60
2018-04-19T03:21:34.000Z,14.80
2018-04-19T03:24:07.899Z,14.20
2018-04-19T03:26:43.232Z,14.40
2018-04-19T03:29:16.822Z,14.80
2018-04-19T03:31:51.355Z,15.67
2018-04-19T03:34:26.052Z,15.10
2018-04-19T03:36:59.883Z,15.57
2018-04-19T03:39:34.535Z,15.63
2018-04-19T03:42:10.006Z,15.27
2018-04-19T03:44:44.900Z,15.17
2018-04-19T03:47:18.891Z,15.13
2018-04-19T03:49:52.390Z,14.90
2018-04-19T03:52:27.469Z,14.90
2018-04-19T03:55:02.137Z,15.03
2018-04-19T03:57:36.232Z,15.90
2018-04-19T04:00:10.245Z,15.97
2018-04-19T04:02:44.180Z,15.00
2018-04-19T04:05:18.049Z,16.37
2018-04-19T04:07:52.685Z,15.77
2018-04-19T04:10:27.385Z,16.13
2018-04-19T04:13:01.847Z,16.90
2018-04-19T04:15:36.768Z,16.20
2018-04-19T04:18:22.615Z,16.03
2018-04-19T04:21:08.919Z,15.93
2018-04-19T04:23:51.687Z,15.63
2018-04-19T04:26:26.266Z,17.00
2018-04-19T04:29:00.220Z,16.93
2018-04-19T04:31:34.171Z,16.27
2018-04-19T04:34:09.125Z,16.07
2018-04-19T04:36:43.075Z,17.20
2018-04-19T04:39:16.650Z,16.63
2018-04-19T04:41:50.269Z,17.03
2018-04-19T04:44:24.680Z,17.43
2018-04-19T04:46:59.210Z,16.60
2018-04-19T04:49:33.104Z,15.97
2018-04-19T04:52:08.559Z,16.03
2018-04-19T04:54:43.600Z,16.10
2018-04-19T04:57:17.878Z,15.83
2018-04-19T04:59:52.725Z,15.53
2018-04-19T05:02:27.860Z,16.60
2018-04-19T05:05:03.116Z,15.50
2018-04-19T05:07:38.213Z,15.17
2018-04-19T05:10:11.863Z,13.80
2018-04-19T05:12:45.766Z,14.30
2018-04-19T05:15:19.355Z,15.20
2018-04-19T05:17:53.398Z,14.77
2018-04-19T05:20:29.858Z,14.43
2018-04-19T05:23:03.682Z,17.37
2018-04-19T05:25:38.815Z,16.57
2018-04-19T05:28:12.526Z,16.63
2018-04-19T05:30:47.391Z,15.53
2018-04-19T05:33:21.870Z,15.70
2018-04-19T05:35:56.005Z,15.03
2018-04-19T05:38:30.234Z,16.13
2018-04-19T05:41:04.852Z,15.50
2018-04-19T05:43:39.438Z,16.33
2018-04-19T05:46:13.414Z,16.87
2018-04-19T05:48:48.813Z,17.70
2018-04-19T05:51:23.684Z,16.40
2018-04-19T05:53:57.893Z,17.27
2018-04-19T05:56:31.638Z,16.57
2018-04-19T05:59:05.583Z,15.97
2018-04-19T06:01:40.157Z,15.87
2018-04-19T06:04:14.634Z,15.90
2018-04-19T06:06:48.970Z,17.57
2018-04-19T06:09:23.494Z,16.63
2018-04-19T06:11:58.121Z,21.90
2018-04-19T06:14:33.321Z,20.87
2018-04-19T06:17:07.027Z,22.73
2018-04-19T06:19:41.751Z,20.93
2018-04-19T06:22:15.555Z,19.80
2018-04-19T06:24:50.179Z,19.13
2018-04-19T06:27:25.017Z,19.07
2018-04-19T06:29:59.860Z,20.13
2018-04-19T06:32:35.852Z,19.03
2018-04-19T06:35:10.527Z,17.47
2018-04-19T06:37:44.218Z,16.80
2018-04-19T06:40:19.051Z,16.60
2018-04-19T06:42:52.635Z,16.47
2018-04-19T06:45:26.360Z,16.63
2018-04-19T06:48:01.807Z,16.33
2018-04-19T06:50:36.967Z,14.83
2018-04-19T06:53:11.762Z,14.47
2018-04-19T06:55:45.379Z,13.63
2018-04-19T06:58:19.263Z,13.67
2018-04-19T07:00:53.298Z,13.57
2018-04-19T07:03:28.031Z,12.73
2018-04-19T07:06:01.934Z,12.60
2018-04-19T07:08:36.698Z,12.70
2018-04-19T07:11:10.571Z,11.67
2018-04-19T07:13:44.823Z,12.40
2018-04-19T07:16:18.766Z,11.70
2018-04-19T07:18:53.617Z,11.53
2018-04-19T07:21:29.271Z,10.93
2018-04-19T07:24:04.108Z,10.90
2018-04-19T07:26:38.815Z,10.80
2018-04-19T07:29:13.191Z,11.70
2018-04-19T07:31:47.438Z,10.77
2018-04-19T07:34:22.133Z,11.60
2018-04-19T07:36:56.198Z,10.70
2018-04-19T07:39:30.193Z,10.17
2018-04-19T07:42:06.219Z,10.83
2018-04-19T07:44:39.953Z,9.97
2018-04-19T07:47:14.336Z,10.53
2018-04-19T07:49:48.775Z,9.20
2018-04-19T07:52:23.626Z,9.83
2018-04-19T07:54:57.926Z,9.23
2018-04-19T07:57:31.966Z,8.80
2018-04-19T08:00:06.131Z,7.53
2018-04-19T08:02:40.759Z,6.47
2018-04-19T08:05:15.447Z,6.50
2018-04-19T08:07:49.452Z,6.83
2018-04-19T08:10:23.328Z,6.30
2018-04-19T08:12:57.005Z,6.23
2018-04-19T08:15:31.016Z,6.17
2018-04-19T08:18:05.021Z,6.30
2018-04-19T08:20:39.880Z,6.10
2018-04-19T08:23:14.146Z,6.30
2018-04-19T08:25:47.690Z,6.07
2018-04-19T08:28:21.479Z,6.30
2018-04-19T08:30:55.300Z,6.07
2018-04-19T08:33:28.977Z,5.80
2018-04-19T08:36:02.795Z,5.63
2018-04-19T08:38:38.665Z,5.67
2018-04-19T08:41:12.422Z,5.70
2018-04-19T08:43:46.363Z,5.13
2018-04-19T08:46:20.110Z,6.20
2018-04-19T08:48:54.390Z,5.63
2018-04-19T08:51:28.956Z,5.30
2018-04-19T08:54:04.140Z,5.63
2018-04-19T08:56:39.071Z,5.80
2018-04-19T08:59:13.431Z,5.90
2018-04-19T09:01:48.319Z,5.17
2018-04-19T09:04:22.844Z,5.60
2018-04-19T09:06:57.015Z,7.07
2018-04-19T09:09:31.423Z,5.40
2018-04-19T09:12:06.417Z,5.30
2018-04-19T09:14:40.506Z,6.13
2018-04-19T09:17:15.565Z,5.03
2018-04-19T09:19:49.168Z,5.03
2018-04-19T09:22:22.920Z,5.57
2018-04-19T09:24:57.074Z,5.70
2018-04-19T09:27:31.434Z,5.90
2018-04-19T09:30:05.909Z,5.93
2018-04-19T09:32:39.509Z,6.20
2018-04-19T09:35:14.553Z,5.60
2018-04-19T09:37:48.320Z,5.93
2018-04-19T09:40:21.935Z,6.03
2018-04-19T09:42:56.145Z,5.60
2018-04-19T09:45:30.689Z,6.40
2018-04-19T09:48:04.830Z,6.50
2018-04-19T09:50:39.290Z,7.23
2018-04-19T09:53:14.313Z,7.10
2018-04-19T09:55:48.133Z,6.83
2018-04-19T09:58:22.683Z,6.60
2018-04-19T10:01:04.159Z,6.10
2018-04-19T10:03:44.597Z,6.70
2018-04-19T10:06:18.667Z,6.90
2018-04-19T10:08:52.743Z,6.57
2018-04-19T10:11:26.746Z,6.80
2018-04-19T10:14:01.256Z,6.60
2018-04-19T10:16:36.240Z,6.67
2018-04-19T10:19:09.886Z,7.03
2018-04-19T10:21:44.630Z,6.47
2018-04-19T10:24:19.775Z,6.50
2018-04-19T10:26:54.287Z,7.80
2018-04-19T10:29:28.927Z,7.57
2018-04-19T10:32:02.395Z,7.93
2018-04-19T10:34:36.408Z,8.17
2018-04-19T10:37:11.083Z,8.57
2018-04-19T10:39:44.574Z,7.73
2018-04-19T10:42:18.419Z,8.13
2018-04-19T10:44:52.151Z,8.80
2018-04-19T10:47:26.298Z,8.97
2018-04-19T10:50:00.762Z,8.93
2018-04-19T10:52:35.413Z,8.87
2018-04-19T10:55:09.038Z,9.27
2018-04-19T10:57:43.218Z,9.73
2018-04-19T11:00:18.113Z,9.20
2018-04-19T11:02:52.221Z,8.90
2018-04-19T11:05:26.158Z,8.80
2018-04-19T11:08:01.183Z,9.00
2018-04-19T11:10:34.933Z,8.33
2018-04-19T11:13:09.412Z,9.10
2018-04-19T11:15:44.453Z,9.80
2018-04-19T11:18:19.080Z,8.73
2018-04-19T11:20:53.199Z,8.17
2018-04-19T11:23:26.932Z,8.43
2018-04-19T11:26:00.732Z,8.57
2018-04-19T11:28:36.204Z,8.97
2018-04-19T11:31:10.851Z,8.83
2018-04-19T11:33:46.382Z,8.10
2018-04-19T11:36:20.419Z,9.07
2018-04-19T11:38:55.143Z,9.10
2018-04-19T11:41:29.281Z,10.13
2018-04-19T11:44:05.407Z,8.57
2018-04-19T11:46:40.543Z,8.13
2018-04-19T11:49:15.403Z,8.97
2018-04-19T11:51:50.286Z,9.40
2018-04-19T11:54:24.064Z,9.93
2018-04-19T11:56:58.215Z,10.80
2018-04-19T11:59:31.894Z,9.20
2018-04-19T12:02:06.532Z,9.77
2018-04-19T12:04:41.397Z,9.80
2018-04-19T12:07:16.003Z,9.37
2018-04-19T12:09:50.898Z,9.57
2018-04-19T12:12:26.106Z,9.30
2018-04-19T12:14:59.747Z,10.13
2018-04-19T12:17:33.563Z,9.27
2018-04-19T12:20:08.954Z,10.23
2018-04-19T12:22:43.282Z,10.27
2018-04-19T12:25:17.991Z,10.17
2018-04-19T12:27:52.405Z,9.77
2018-04-19T12:30:28.091Z,10.77
2018-04-19T12:33:03.052Z,9.93
2018-04-19T12:35:37.230Z,11.53
2018-04-19T12:38:11.046Z,10.50
2018-04-19T12:40:45.873Z,11.03
2018-04-19T12:43:19.591Z,12.20
2018-04-19T12:45:53.686Z,11.57
2018-04-19T12:48:27.696Z,11.90
2018-04-19T12:51:02.286Z,10.87
2018-04-19T12:53:37.239Z,11.07
2018-04-19T12:56:11.821Z,11.40
2018-04-19T12:58:46.676Z,10.97
2018-04-19T13:01:20.711Z,10.63
2018-04-19T13:03:55.058Z,11.03
2018-04-19T13:06:28.847Z,10.50
2018-04-19T13:09:03.747Z,11.13
2018-04-19T13:11:37.464Z,11.03
2018-04-19T13:14:11.163Z,10.97
2018-04-19T13:16:45.831Z,10.67
2018-04-19T13:19:19.403Z,11.60
2018-04-19T13:21:53.323Z,11.23
2018-04-19T13:24:28.119Z,12.37
2018-04-19T13:27:03.085Z,13.13
2018-04-19T13:29:37.823Z,11.70
2018-04-19T13:32:11.590Z,12.80
2018-04-19T13:34:46.361Z,12.53
2018-04-19T13:37:21.632Z,11.90
2018-04-19T13:39:56.903Z,11.87
2018-04-19T13:42:30.692Z,10.90
2018-04-19T13:45:04.556Z,11.30
2018-04-19T13:47:38.598Z,10.90
2018-04-19T13:50:13.139Z,11.30
2018-04-19T13:52:47.746Z,11.07
2018-04-19T13:55:21.341Z,11.57
2018-04-19T13:57:55.332Z,12.20
2018-04-19T14:00:29.999Z,12.87
2018-04-19T14:03:03.861Z,14.53
2018-04-19T14:05:37.891Z,12.77
2018-04-19T14:08:12.551Z,12.43
2018-04-19T14:10:47.440Z,12.23
2018-04-19T14:13:21.897Z,12.07
2018-04-19T14:15:56.286Z,12.40
2018-04-19T14:18:31.157Z,12.73
2018-04-19T14:21:05.762Z,11.37
2018-04-19T14:23:39.449Z,10.37
2018-04-19T14:26:14.184Z,10.87
2018-04-19T14:28:47.971Z,11.10
2018-04-19T14:31:21.662Z,11.33
2018-04-19T14:33:56.492Z,12.43
2018-04-19T14:36:30.090Z,11.20
2018-04-19T14:39:06.622Z,12.77
2018-04-19T14:41:41.173Z,11.07
2018-04-19T14:44:15.103Z,10.13
2018-04-19T14:46:49.543Z,11.07
2018-04-19T14:49:24.840Z,10.17
2018-04-19T14:51:58.771Z,9.53
2018-04-19T14:54:33.296Z,7.70
2018-04-19T14:57:08.843Z,7.63
2018-04-19T14:59:43.413Z,9.37
2018-04-19T15:02:17.762Z,7.50
2018-04-19T15:04:51.823Z,9.37
2018-04-19T15:07:25.691Z,9.83
2018-04-19T15:09:59.597Z,8.60
2018-04-19T15:12:34.184Z,8.03
2018-04-19T15:15:08.939Z,7.33
2018-04-19T15:17:43.245Z,6.60
2018-04-19T15:20:18.201Z,7.47
2018-04-19T15:22:52.936Z,6.77
2018-04-19T15:25:27.040Z,6.97
2018-04-19T15:28:01.926Z,6.47
2018-04-19T15:30:35.776Z,6.20
2018-04-19T15:33:10.387Z,7.57
2018-04-19T15:35:45.168Z,8.70
2018-04-19T15:38:19.809Z,7.50
2018-04-19T15:40:54.531Z,6.77
2018-04-19T15:43:28.556Z,6.97
2018-04-19T15:46:02.983Z,5.50
2018-04-19T15:48:37.552Z,5.90
2018-04-19T15:51:11.532Z,6.00
2018-04-19T15:53:45.220Z,5.27
2018-04-19T15:56:18.848Z,5.63
2018-04-19T15:58:53.919Z,4.80
2018-04-19T16:01:27.803Z,5.50
2018-04-19T16:04:01.564Z,5.63
2018-04-19T16:06:35.392Z,5.90
2018-04-19T16:09:09.990Z,6.00
2018-04-19T16:11:52.851Z,5.70
2018-04-19T16:14:18.022Z,5.90
2018-04-19T16:16:52.043Z,6.03
2018-04-19T16:19:25.555Z,6.77
2018-04-19T16:21:59.137Z,6.43
2018-04-19T16:24:33.038Z,5.40
2018-04-19T16:27:07.984Z,5.37
2018-04-19T16:29:41.677Z,5.60
2018-04-19T16:32:16.206Z,5.70
2018-04-19T16:34:49.883Z,5.60
2018-04-19T16:37:24.682Z,5.97
2018-04-19T16:39:59.067Z,5.70
2018-04-19T16:42:33.359Z,5.43
2018-04-19T16:45:07.247Z,6.03
2018-04-19T16:47:41.763Z,6.00
2018-04-19T16:50:15.284Z,6.17
2018-04-19T16:52:48.776Z,5.87
2018-04-19T16:55:22.270Z,5.37
2018-04-19T16:57:57.020Z,6.40
2018-04-19T17:00:30.553Z,5.97
2018-04-19T17:03:04.184Z,5.63
2018-04-19T17:05:37.969Z,5.37
2018-04-19T17:08:12.437Z,6.10
2018-04-19T17:10:46.200Z,6.57
2018-04-19T17:13:20.842Z,8.70
2018-04-19T17:15:54.940Z,6.67
2018-04-19T17:18:29.789Z,6.23
2018-04-19T17:21:03.612Z,6.47
2018-04-19T17:23:37.339Z,6.20
2018-04-19T17:26:11.252Z,6.20
2018-04-19T17:28:46.473Z,6.20
2018-04-19T17:31:20.419Z,6.07
2018-04-19T17:33:54.100Z,6.50
2018-04-19T17:36:28.041Z,6.33
2018-04-19T17:39:01.932Z,5.67
2018-04-19T17:41:35.763Z,6.30
2018-04-19T17:44:10.873Z,6.30
2018-04-19T17:46:44.932Z,8.83
2018-04-19T17:49:18.809Z,7.00
2018-04-19T17:51:52.454Z,7.70
2018-04-19T17:54:27.354Z,6.73
2018-04-19T17:57:00.919Z,7.30
2018-04-19T17:59:35.089Z,6.50
2018-04-19T18:02:08.577Z,6.53
2018-04-19T18:04:42.234Z,6.60
2018-04-19T18:07:15.930Z,6.70
2018-04-19T18:09:50.464Z,6.53
2018-04-19T18:12:24.742Z,6.47
2018-04-19T18:14:59.263Z,6.83
2018-04-19T18:17:33.090Z,6.67
2018-04-19T18:20:06.710Z,6.50
2018-04-19T18:22:41.377Z,6.90
2018-04-19T18:25:15.725Z,6.80
2018-04-19T18:27:50.216Z,6.93
2018-04-19T18:30:24.087Z,6.47
2018-04-19T18:32:59.053Z,6.53
2018-04-19T18:35:32.854Z,6.37
2018-04-19T18:38:07.272Z,6.37
2018-04-19T18:40:41.013Z,6.20
2018-04-19T18:43:14.910Z,5.63
2018-04-19T18:45:49.271Z,6.20
2018-04-19T18:48:23.290Z,5.97
2018-04-19T18:50:58.797Z,6.13
2018-04-19T18:53:32.643Z,5.90
2018-04-19T18:56:06.384Z,6.07
2018-04-19T18:58:40.033Z,6.33
2018-04-19T19:01:14.310Z,5.73
2018-04-19T19:03:47.820Z,5.80
2018-04-19T19:06:21.353Z,6.10
2018-04-19T19:08:56.012Z,6.60
2018-04-19T19:11:29.973Z,6.10
2018-04-19T19:14:04.739Z,6.47
2018-04-19T19:16:39.467Z,6.63
2018-04-19T19:19:25.927Z,6.90
2018-04-19T19:22:00.291Z,7.17
2018-04-19T19:24:33.804Z,7.00
2018-04-19T19:27:07.407Z,6.97
2018-04-19T19:29:40.983Z,7.70
2018-04-19T19:32:15.366Z,7.00
2018-04-19T19:34:49.066Z,8.17
2018-04-19T19:37:22.987Z,7.10
2018-04-19T19:39:56.851Z,7.17
2018-04-19T19:42:31.376Z,7.03
2018-04-19T19:45:05.827Z,7.30
2018-04-19T19:47:40.350Z,6.90
2018-04-19T19:50:15.018Z,6.70
2018-04-19T19:52:49.052Z,6.90
2018-04-19T19:55:23.480Z,7.27
2018-04-19T19:57:58.060Z,7.70
2018-04-19T20:00:32.922Z,6.87
2018-04-19T20:03:07.308Z,6.20
2018-04-19T20:05:41.093Z,6.43
2018-04-19T20:08:15.508Z,6.43
2018-04-19T20:10:49.071Z,6.90
2018-04-19T20:13:23.518Z,6.50
2018-04-19T20:15:58.231Z,5.97
2018-04-19T20:18:32.759Z,5.83
2018-04-19T20:21:07.150Z,7.27
2018-04-19T20:23:40.999Z,7.13
2018-04-19T20:26:15.712Z,6.60
2018-04-19T20:28:50.357Z,6.60
2018-04-19T20:31:24.023Z,7.53
2018-04-19T20:33:58.787Z,7.20
2018-04-19T20:36:33.537Z,6.83
2018-04-19T20:39:08.125Z,7.07
2018-04-19T20:41:42.844Z,6.80
2018-04-19T20:44:17.592Z,7.13
2018-04-19T20:46:51.472Z,7.17
2018-04-19T20:49:26.123Z,7.23
2018-04-19T20:52:00.951Z,7.03
2018-04-19T20:54:35.653Z,7.10
2018-04-19T20:57:09.857Z,7.70
2018-04-19T20:59:43.595Z,7.13
2018-04-19T21:02:18.449Z,7.00
2018-04-19T21:04:52.308Z,6.97
2018-04-19T21:07:26.159Z,6.97
2018-04-19T21:10:00.737Z,7.20
2018-04-19T21:12:34.531Z,6.47
2018-04-19T21:15:09.359Z,6.57
2018-04-19T21:17:44.068Z,6.30
2018-04-19T21:20:19.012Z,6.57
2018-04-19T21:22:53.498Z,6.30
2018-04-19T21:25:28.863Z,6.90
2018-04-19T21:28:03.589Z,7.00
2018-04-19T21:30:37.410Z,6.33
2018-04-19T21:33:11.401Z,6.67
2018-04-19T21:35:46.002Z,7.13
2018-04-19T21:38:20.644Z,6.97
2018-04-19T21:40:55.493Z,7.10
2018-04-19T21:43:31.157Z,6.53
2018-04-19T21:46:04.830Z,6.60
2018-04-19T21:48:39.834Z,7.03
2018-04-19T21:51:14.997Z,6.83
2018-04-19T21:53:49.167Z,6.43
2018-04-19T21:56:23.896Z,6.67
2018-04-19T21:58:59.537Z,7.20
2018-04-19T22:01:34.490Z,6.73
2018-04-19T22:04:08.929Z,7.27
2018-04-19T22:06:43.275Z,7.30
2018-04-19T22:09:17.165Z,7.93
2018-04-19T22:11:51.983Z,7.27
2018-04-19T22:14:25.791Z,7.80
2018-04-19T22:17:00.627Z,7.20
2018-04-19T22:19:35.162Z,7.70
2018-04-19T22:22:09.220Z,7.87
2018-04-19T22:24:43.791Z,7.70
2018-04-19T22:27:17.634Z,6.93
2018-04-19T22:29:52.416Z,7.90
2018-04-19T22:32:27.833Z,7.77
2018-04-19T22:35:02.576Z,7.63
2018-04-19T22:37:37.296Z,8.03
2018-04-19T22:40:11.738Z,7.63
2018-04-19T22:42:46.986Z,7.57
2018-04-19T22:45:21.146Z,7.23
2018-04-19T22:47:55.183Z,7.70
2018-04-19T22:50:28.913Z,7.17
2018-04-19T22:53:02.619Z,7.40
2018-04-19T22:55:37.651Z,7.80
2018-04-19T22:58:12.256Z,8.03
2018-04-19T23:00:47.088Z,7.07
2018-04-19T23:03:21.180Z,8.33
2018-04-19T23:05:54.904Z,7.60
2018-04-19T23:08:29.838Z,7.67
2018-04-19T23:11:03.612Z,8.53
2018-04-19T23:13:38.299Z,8.47
2018-04-19T23:16:12.949Z,8.20
2018-04-19T23:18:47.211Z,8.20
2018-04-19T23:21:21.711Z,8.30
2018-04-19T23:23:55.312Z,8.17
2018-04-19T23:26:30.752Z,8.47
2018-04-19T23:29:05.551Z,8.00
2018-04-19T23:31:40.408Z,8.87
2018-04-19T23:34:14.928Z,8.43
2018-04-19T23:36:49.841Z,8.17
2018-04-19T23:39:24.290Z,8.53
2018-04-19T23:41:59.471Z,8.50
2018-04-19T23:44:34.141Z,8.17
2018-04-19T23:47:08.654Z,9.43
2018-04-19T23:49:42.699Z,8.57
